createdAt,value
2022-11-28T00:02:22.292Z,23.77
2022-11-28T00:04:52.662Z,19.48
2022-11-28T00:07:19.520Z,20.52
2022-11-28T00:09:46.444Z,19.20
2022-11-28T00:12:13.100Z,21.35
2022-11-28T00:14:40.214Z,20.02
2022-11-28T00:17:07.020Z,25.20
2022-11-28T00:19:33.724Z,20.02
2022-11-28T00:22:00.388Z,22.52
2022-11-28T00:24:27.003Z,18.85
2022-11-28T00:26:53.672Z,19.40
2022-11-28T00:29:20.479Z,19.70
2022-11-28T00:31:47.180Z,20.77
2022-11-28T00:34:15.422Z,19.95
2022-11-28T00:36:44.485Z,18.85
2022-11-28T00:39:11.143Z,22.50
2022-11-28T00:41:37.834Z,19.50
2022-11-28T00:44:04.537Z,19.42
2022-11-28T00:46:31.253Z,20.90
2022-11-28T00:48:58.958Z,17.17
2022-11-28T00:51:28.275Z,21.52
2022-11-28T00:53:56.416Z,22.63
2022-11-28T00:56:25.719Z,30.30
2022-11-28T00:58:52.629Z,19.85
2022-11-28T01:01:31.198Z,20.83
2022-11-28T01:04:01.506Z,21.30
2022-11-28T01:06:34.936Z,20.40
2022-11-28T01:09:04.553Z,17.85
2022-11-28T01:11:31.317Z,22.52
2022-11-28T01:13:59.577Z,21.17
2022-11-28T01:16:27.025Z,20.02
2022-11-28T01:18:53.987Z,22.48
2022-11-28T01:21:21.178Z,22.30
2022-11-28T01:23:47.958Z,22.15
2022-11-28T01:26:22.843Z,18.83
2022-11-28T01:28:52.641Z,20.10
2022-11-28T01:31:25.478Z,22.30
2022-11-28T01:33:52.884Z,20.98
2022-11-28T01:36:20.440Z,22.02
2022-11-28T01:38:50.587Z,19.00
2022-11-28T01:41:20.223Z,19.90
2022-11-28T01:44:00.201Z,21.52
2022-11-28T01:46:26.968Z,21.85
2022-11-28T01:48:53.766Z,20.70
2022-11-28T01:51:20.691Z,23.83
2022-11-28T01:53:47.573Z,21.35
2022-11-28T01:56:21.028Z,20.13
2022-11-28T01:58:52.419Z,22.77
2022-11-28T02:01:19.662Z,21.17
2022-11-28T02:03:48.184Z,21.65
2022-11-28T02:06:17.644Z,21.67
2022-11-28T02:08:44.261Z,21.65
2022-11-28T02:11:41.012Z,23.05
2022-11-28T02:14:39.580Z,23.58
2022-11-28T02:17:09.137Z,21.45
2022-11-28T02:20:02.039Z,24.38
2022-11-28T02:23:00.292Z,22.48
2022-11-28T02:25:52.187Z,20.92
2022-11-28T02:28:39.079Z,24.75
2022-11-28T02:31:15.625Z,20.90
2022-11-28T02:33:46.320Z,24.83
2022-11-28T02:36:38.346Z,23.92
2022-11-28T02:39:14.581Z,22.20
2022-11-28T02:41:45.784Z,25.95
2022-11-28T02:44:18.461Z,22.13
2022-11-28T02:46:56.771Z,21.95
2022-11-28T02:49:47.555Z,22.45
2022-11-28T02:52:21.635Z,23.25
2022-11-28T02:54:50.039Z,22.67
2022-11-28T02:57:16.816Z,25.85
2022-11-28T02:59:43.374Z,23.98
2022-11-28T03:02:31.608Z,23.77
2022-11-28T03:05:15.895Z,20.23
2022-11-28T03:07:59.651Z,22.30
2022-11-28T03:10:51.612Z,21.60
2022-11-28T03:13:39.419Z,23.20
2022-11-28T03:16:18.083Z,24.70
2022-11-28T03:19:05.944Z,21.13
2022-11-28T03:21:52.443Z,20.73
2022-11-28T03:24:31.760Z,19.58
2022-11-28T03:27:29.503Z,20.15
2022-11-28T03:30:01.330Z,18.30
2022-11-28T03:32:30.711Z,20.15
2022-11-28T03:35:06.644Z,26.60
2022-11-28T03:37:36.710Z,20.48
2022-11-28T03:40:07.309Z,19.65
2022-11-28T03:42:42.596Z,20.10
2022-11-28T03:45:12.512Z,17.60
2022-11-28T03:47:44.177Z,20.40
2022-11-28T03:50:21.306Z,22.13
2022-11-28T03:53:06.164Z,22.20
2022-11-28T03:55:41.039Z,18.77
2022-11-28T03:58:25.497Z,18.33
2022-11-28T04:01:03.856Z,21.98
2022-11-28T04:03:52.352Z,19.58
2022-11-28T04:06:24.371Z,19.35
2022-11-28T04:09:11.502Z,19.08
2022-11-28T04:11:47.091Z,20.35
2022-11-28T04:14:42.319Z,20.15
2022-11-28T04:17:16.138Z,18.83
2022-11-28T04:19:51.524Z,17.20
2022-11-28T04:22:28.784Z,22.05
2022-11-28T04:24:58.172Z,19.90
2022-11-28T04:27:31.590Z,19.25
2022-11-28T04:30:00.206Z,19.35
2022-11-28T04:32:27.257Z,20.75
2022-11-28T04:34:57.418Z,19.85
2022-11-28T04:37:25.420Z,19.35
2022-11-28T04:39:52.606Z,20.00
2022-11-28T04:42:31.231Z,21.17
2022-11-28T04:45:04.136Z,20.50
2022-11-28T04:47:30.857Z,20.73
2022-11-28T04:49:57.739Z,22.48
2022-11-28T04:52:37.361Z,19.75
2022-11-28T04:55:33.985Z,20.15
2022-11-28T04:58:13.469Z,28.55
2022-11-28T05:00:40.906Z,24.70
2022-11-28T05:03:08.284Z,19.63
2022-11-28T05:05:45.940Z,24.42
2022-11-28T05:08:12.694Z,18.30
2022-11-28T05:10:40.023Z,20.17
2022-11-28T05:13:06.805Z,22.05
2022-11-28T05:15:33.543Z,21.40
2022-11-28T05:18:00.154Z,20.65
2022-11-28T05:20:26.865Z,22.55
2022-11-28T05:22:53.556Z,22.38
2022-11-28T05:25:20.954Z,23.20
2022-11-28T05:27:47.781Z,21.15
2022-11-28T05:30:15.134Z,23.63
2022-11-28T05:32:42.100Z,21.52
2022-11-28T05:35:09.233Z,20.85
2022-11-28T05:37:36.135Z,22.20
2022-11-28T05:40:02.887Z,20.42
2022-11-28T05:42:33.181Z,22.15
2022-11-28T05:45:00.128Z,22.73
2022-11-28T05:47:26.891Z,22.95
2022-11-28T05:49:53.494Z,21.20
2022-11-28T05:52:20.234Z,18.85
2022-11-28T05:54:46.829Z,22.38
2022-11-28T05:57:13.486Z,21.92
2022-11-28T05:59:40.644Z,21.30
2022-11-28T06:02:07.921Z,22.33
2022-11-28T06:04:34.587Z,20.88
2022-11-28T06:07:04.335Z,18.67
2022-11-28T06:09:31.034Z,19.17
2022-11-28T06:11:57.651Z,19.42
2022-11-28T06:14:24.341Z,19.92
2022-11-28T06:16:51.067Z,20.20
2022-11-28T06:19:18.953Z,21.50
2022-11-28T06:21:45.713Z,18.92
2022-11-28T06:24:12.374Z,19.58
2022-11-28T06:26:39.008Z,21.48
2022-11-28T06:29:05.693Z,19.27
2022-11-28T06:31:32.448Z,21.42
2022-11-28T06:33:59.134Z,18.60
2022-11-28T06:36:26.570Z,20.15
2022-11-28T06:38:53.699Z,18.77
2022-11-28T06:41:26.549Z,19.88
2022-11-28T06:43:53.507Z,27.05
2022-11-28T06:46:21.403Z,23.48
2022-11-28T06:48:49.167Z,20.90
2022-11-28T06:51:16.358Z,23.52
2022-11-28T06:53:43.273Z,19.98
2022-11-28T06:56:16.880Z,22.85
2022-11-28T06:58:44.292Z,21.40
2022-11-28T07:01:19.304Z,20.52
2022-11-28T07:03:46.499Z,22.25
2022-11-28T07:06:15.110Z,19.88
2022-11-28T07:08:42.394Z,24.23
2022-11-28T07:11:26.427Z,20.02
2022-11-28T07:13:53.487Z,20.80
2022-11-28T07:16:25.904Z,21.55
2022-11-28T07:18:53.938Z,22.63
2022-11-28T07:21:21.175Z,25.25
2022-11-28T07:23:48.578Z,24.73
2022-11-28T07:26:17.522Z,25.73
2022-11-28T07:28:45.420Z,26.85
2022-11-28T07:31:17.532Z,24.80
2022-11-28T07:33:46.622Z,23.77
2022-11-28T07:36:15.705Z,22.70
2022-11-28T07:38:42.399Z,22.08
2022-11-28T07:41:11.612Z,24.90
2022-11-28T07:43:38.827Z,25.55
2022-11-28T07:46:08.064Z,29.15
2022-11-28T07:48:35.507Z,25.77
2022-11-28T07:51:07.247Z,24.55
2022-11-28T07:53:34.408Z,25.63
2022-11-28T07:56:03.732Z,24.75
2022-11-28T07:58:30.586Z,25.70
2022-11-28T08:00:59.317Z,23.55
2022-11-28T08:03:26.194Z,28.08
2022-11-28T08:05:52.917Z,26.10
2022-11-28T08:08:20.419Z,25.73
2022-11-28T08:10:47.131Z,26.23
2022-11-28T08:13:16.604Z,25.92
2022-11-28T08:15:43.324Z,27.23
2022-11-28T08:18:10.031Z,25.10
2022-11-28T08:20:36.822Z,26.65
2022-11-28T08:23:03.518Z,24.98
2022-11-28T08:25:30.280Z,26.88
2022-11-28T08:27:56.901Z,23.80
2022-11-28T08:30:23.990Z,24.98
2022-11-28T08:32:51.196Z,28.40
2022-11-28T08:35:17.918Z,28.98
2022-11-28T08:37:44.780Z,26.70
2022-11-28T08:40:11.907Z,25.10
2022-11-28T08:42:38.691Z,25.95
2022-11-28T08:45:06.593Z,29.38
2022-11-28T08:47:33.621Z,26.90
2022-11-28T08:50:00.240Z,24.27
2022-11-28T08:52:27.382Z,26.45
2022-11-28T08:54:54.709Z,25.75
2022-11-28T08:57:21.397Z,29.98
2022-11-28T08:59:48.123Z,27.90
2022-11-28T09:02:14.850Z,28.35
2022-11-28T09:04:41.642Z,25.27
2022-11-28T09:07:08.323Z,26.75
2022-11-28T09:09:34.987Z,27.35
2022-11-28T09:12:01.633Z,26.10
2022-11-28T09:14:28.448Z,30.95
2022-11-28T09:16:55.162Z,29.55
2022-11-28T09:19:21.857Z,27.67
2022-11-28T09:21:51.933Z,28.75
2022-11-28T09:24:22.402Z,30.20
2022-11-28T09:26:49.027Z,24.85
2022-11-28T09:29:15.796Z,29.02
2022-11-28T09:31:47.211Z,30.10
2022-11-28T09:34:14.308Z,29.00
2022-11-28T09:36:40.924Z,26.58
2022-11-28T09:39:07.651Z,27.77
2022-11-28T09:41:40.270Z,28.13
2022-11-28T09:44:27.548Z,28.25
2022-11-28T09:46:57.183Z,26.92
2022-11-28T09:49:40.249Z,26.58
2022-11-28T09:52:32.749Z,28.60
2022-11-28T09:55:12.094Z,29.45
2022-11-28T09:57:45.770Z,29.25
2022-11-28T10:00:18.906Z,30.27
2022-11-28T10:03:20.014Z,31.88
2022-11-28T10:06:11.551Z,26.52
2022-11-28T10:08:54.530Z,29.13
2022-11-28T10:11:34.264Z,31.45
2022-11-28T10:14:09.967Z,28.63
2022-11-28T10:16:59.961Z,32.53
2022-11-28T10:19:56.164Z,29.73
2022-11-28T10:22:36.003Z,31.33
2022-11-28T10:25:07.463Z,34.42
2022-11-28T10:27:35.150Z,33.97
2022-11-28T10:30:04.331Z,30.25
2022-11-28T10:32:43.050Z,26.83
2022-11-28T10:35:28.963Z,29.15
2022-11-28T10:37:55.690Z,27.10
2022-11-28T10:40:41.821Z,31.73
2022-11-28T10:43:16.692Z,31.48
2022-11-28T10:46:01.109Z,28.77
2022-11-28T10:48:40.050Z,25.15
2022-11-28T10:51:35.451Z,25.77
2022-11-28T10:54:32.187Z,32.10
2022-11-28T10:57:17.825Z,29.65
2022-11-28T11:00:08.974Z,28.40
2022-11-28T11:02:47.030Z,28.30
2022-11-28T11:05:16.782Z,31.65
2022-11-28T11:07:47.211Z,28.63
2022-11-28T11:10:19.452Z,28.77
2022-11-28T11:12:46.768Z,26.13
2022-11-28T11:15:30.109Z,28.58
2022-11-28T11:17:57.686Z,28.65
2022-11-28T11:20:34.104Z,25.88
2022-11-28T11:23:06.327Z,30.63
2022-11-28T11:25:33.844Z,28.63
2022-11-28T11:28:04.719Z,29.90
2022-11-28T11:30:38.814Z,26.15
2022-11-28T11:33:07.370Z,25.90
2022-11-28T11:35:43.547Z,27.80
2022-11-28T11:38:21.708Z,29.08
2022-11-28T11:40:49.834Z,24.85
2022-11-28T11:43:30.754Z,25.98
2022-11-28T11:46:11.975Z,24.02
2022-11-28T11:48:56.832Z,24.98
2022-11-28T11:51:36.502Z,25.10
2022-11-28T11:54:15.074Z,26.80
2022-11-28T11:56:44.948Z,27.02
2022-11-28T11:59:23.722Z,24.20
2022-11-28T12:01:54.691Z,29.77
2022-11-28T12:04:45.075Z,26.25
2022-11-28T12:07:22.522Z,26.33
2022-11-28T12:09:49.847Z,28.50
2022-11-28T12:12:29.328Z,23.17
2022-11-28T12:14:56.349Z,24.35
2022-11-28T12:20:53.624Z,25.38
2022-11-28T12:23:36.725Z,27.90
2022-11-28T12:26:17.742Z,28.40
2022-11-28T12:29:29.191Z,27.20
2022-11-28T12:32:06.387Z,26.90
2022-11-28T12:34:53.006Z,26.38
2022-11-28T12:38:09.416Z,24.63
2022-11-28T12:40:57.128Z,28.00
2022-11-28T12:43:32.755Z,26.40
2022-11-28T12:46:14.114Z,27.15
2022-11-28T12:48:52.993Z,24.17
2022-11-28T12:51:38.316Z,25.35
2022-11-28T12:54:15.988Z,25.73
2022-11-28T12:56:58.851Z,23.30
2022-11-28T12:59:37.554Z,22.38
2022-11-28T13:02:52.792Z,31.00
2022-11-28T13:05:48.184Z,22.17
2022-11-28T13:08:27.749Z,23.20
2022-11-28T13:11:06.428Z,25.85
2022-11-28T13:13:41.482Z,22.90
2022-11-28T13:16:25.144Z,21.42
2022-11-28T13:19:32.261Z,23.23
2022-11-28T13:22:23.796Z,21.88
2022-11-28T13:25:01.005Z,24.23
2022-11-28T13:27:43.077Z,20.92
2022-11-28T13:30:26.819Z,19.92
2022-11-28T13:33:12.282Z,21.80
2022-11-28T13:35:41.406Z,22.60
2022-11-28T13:38:47.136Z,19.05
2022-11-28T13:44:46.575Z,20.30
2022-11-28T13:47:23.690Z,20.65
2022-11-28T13:49:50.702Z,23.13
2022-11-28T13:52:17.556Z,24.42
2022-11-28T13:54:51.751Z,22.88
2022-11-28T13:57:24.375Z,24.92
2022-11-28T14:00:04.772Z,24.35
2022-11-28T14:02:53.851Z,27.10
2022-11-28T14:05:27.681Z,28.40
2022-11-28T14:07:56.219Z,29.83
2022-11-28T14:10:28.984Z,25.33
2022-11-28T14:13:22.889Z,29.15
2022-11-28T14:16:24.772Z,29.42
2022-11-28T14:19:13.452Z,28.35
2022-11-28T14:22:02.652Z,30.25
2022-11-28T14:25:09.624Z,31.17
2022-11-28T14:27:40.963Z,30.80
2022-11-28T14:30:23.857Z,30.15
2022-11-28T14:32:55.946Z,30.70
2022-11-28T14:35:50.783Z,29.92
2022-11-28T14:38:27.507Z,28.48
2022-11-28T14:40:54.987Z,30.60
2022-11-28T14:43:29.344Z,30.75
2022-11-28T14:46:31.350Z,32.13
2022-11-28T14:48:58.567Z,29.38
2022-11-28T14:51:44.253Z,29.50
2022-11-28T14:54:27.305Z,32.30
2022-11-28T14:56:59.633Z,31.25
2022-11-28T14:59:38.215Z,28.23
2022-11-28T15:02:21.684Z,28.23
2022-11-28T15:04:57.620Z,31.55
2022-11-28T15:07:39.742Z,32.53
2022-11-28T15:10:37.591Z,29.77
2022-11-28T15:13:21.933Z,26.85
2022-11-28T15:15:51.440Z,32.45
2022-11-28T15:18:19.031Z,28.20
2022-11-28T15:20:50.925Z,30.27
2022-11-28T15:23:36.935Z,28.98
2022-11-28T15:26:03.740Z,32.22
2022-11-28T15:28:34.101Z,33.55
2022-11-28T15:31:03.398Z,32.05
2022-11-28T15:33:30.733Z,31.33
2022-11-28T15:36:02.256Z,32.10
2022-11-28T15:38:30.641Z,29.60
2022-11-28T15:40:58.303Z,34.80
2022-11-28T15:43:25.411Z,33.65
2022-11-28T15:45:54.460Z,32.67
2022-11-28T15:48:38.963Z,34.83
2022-11-28T15:51:07.827Z,32.30
2022-11-28T15:53:40.630Z,32.67
2022-11-28T15:56:09.802Z,32.30
2022-11-28T15:58:36.730Z,33.63
2022-11-28T16:01:26.142Z,31.73
2022-11-28T16:04:13.800Z,35.35
2022-11-28T16:06:43.417Z,33.92
2022-11-28T16:09:19.282Z,33.20
2022-11-28T16:11:52.488Z,37.13
2022-11-28T16:14:23.811Z,34.35
2022-11-28T16:16:50.618Z,34.70
2022-11-28T16:19:37.466Z,33.75
2022-11-28T16:22:06.515Z,36.22
2022-11-28T16:24:42.711Z,31.60
2022-11-28T16:27:26.946Z,33.92
2022-11-28T16:29:53.827Z,39.22
2022-11-28T16:32:32.495Z,35.95
2022-11-28T16:35:02.615Z,33.67
2022-11-28T16:37:31.078Z,35.50
2022-11-28T16:40:12.852Z,36.22
2022-11-28T16:42:39.669Z,34.05
2022-11-28T16:45:14.850Z,37.47
2022-11-28T16:47:41.587Z,40.63
2022-11-28T16:50:24.223Z,37.40
2022-11-28T16:52:55.684Z,37.90
2022-11-28T16:55:32.381Z,39.42
2022-11-28T16:58:10.584Z,35.05
2022-11-28T17:00:39.739Z,38.20
2022-11-28T17:03:11.601Z,35.05
2022-11-28T17:05:39.535Z,40.28
2022-11-28T17:08:08.163Z,36.35
2022-11-28T17:10:34.953Z,42.30
2022-11-28T17:13:01.571Z,40.08
2022-11-28T17:15:28.320Z,38.33
2022-11-28T17:17:57.272Z,37.65
2022-11-28T17:20:23.950Z,36.30
2022-11-28T17:22:51.355Z,35.67
2022-11-28T17:25:20.066Z,41.50
2022-11-28T17:27:48.275Z,37.50
2022-11-28T17:30:16.462Z,40.38
2022-11-28T17:32:43.199Z,35.70
2022-11-28T17:35:14.682Z,40.25
2022-11-28T17:37:41.524Z,42.40
2022-11-28T17:40:27.266Z,36.60
2022-11-28T17:42:54.023Z,37.47
2022-11-28T17:45:22.113Z,41.17
2022-11-28T17:47:48.865Z,42.75
2022-11-28T17:50:16.358Z,40.20
2022-11-28T17:52:43.738Z,41.47
2022-11-28T17:55:10.530Z,41.65
2022-11-28T17:57:37.304Z,40.47
2022-11-28T18:00:09.225Z,42.33
2022-11-28T18:02:43.318Z,39.10
2022-11-28T18:05:10.246Z,48.67
2022-11-28T18:07:39.040Z,41.90
2022-11-28T18:10:07.155Z,46.10
2022-11-28T18:12:33.981Z,45.05
2022-11-28T18:15:01.155Z,41.83
2022-11-28T18:17:28.327Z,47.30
2022-11-28T18:19:57.609Z,45.10
2022-11-28T18:22:24.759Z,47.78
2022-11-28T18:24:52.229Z,41.90
2022-11-28T18:27:18.931Z,43.97
2022-11-28T18:29:45.994Z,45.53
2022-11-28T18:32:13.078Z,50.78
2022-11-28T18:34:39.987Z,50.22
2022-11-28T18:37:07.430Z,43.70
2022-11-28T18:39:35.897Z,49.85
2022-11-28T18:42:02.684Z,46.83
2022-11-28T18:44:29.495Z,48.88
2022-11-28T18:46:56.294Z,47.28
2022-11-28T18:49:23.043Z,51.13
2022-11-28T18:51:50.313Z,47.60
2022-11-28T18:54:21.636Z,53.72
2022-11-28T18:56:49.075Z,50.50
2022-11-28T18:59:17.861Z,52.20
2022-11-28T19:01:44.852Z,57.55
2022-11-28T19:04:12.436Z,52.67
2022-11-28T19:06:40.586Z,50.13
2022-11-28T19:09:10.996Z,55.45
2022-11-28T19:11:38.691Z,56.92
2022-11-28T19:14:08.088Z,53.75
2022-11-28T19:16:37.797Z,55.92
2022-11-28T19:19:06.249Z,54.40
2022-11-28T19:21:36.016Z,48.90
2022-11-28T19:24:04.208Z,52.00
2022-11-28T19:26:34.098Z,56.15
2022-11-28T19:29:01.875Z,51.20
2022-11-28T19:31:31.208Z,54.25
2022-11-28T19:34:07.135Z,58.03
2022-11-28T19:36:42.192Z,51.70
2022-11-28T19:39:20.593Z,55.88
2022-11-28T19:41:48.763Z,53.67
2022-11-28T19:44:16.327Z,51.88
2022-11-28T19:46:43.249Z,53.72
2022-11-28T19:49:16.883Z,76.63
2022-11-28T19:51:44.706Z,75.97
2022-11-28T19:54:11.469Z,62.17
2022-11-28T19:56:38.301Z,55.05
2022-11-28T19:59:05.041Z,53.42
2022-11-28T20:01:34.382Z,54.70
2022-11-28T20:04:01.393Z,56.50
2022-11-28T20:06:30.222Z,58.28
2022-11-28T20:09:07.305Z,54.35
2022-11-28T20:11:37.017Z,54.55
2022-11-28T20:14:22.559Z,53.22
2022-11-28T20:16:49.966Z,51.08
2022-11-28T20:19:18.366Z,56.30
2022-11-28T20:21:46.366Z,50.10
2022-11-28T20:24:14.522Z,55.25
2022-11-28T20:26:43.325Z,52.83
2022-11-28T20:29:14.658Z,56.35
2022-11-28T20:31:46.137Z,54.63
2022-11-28T20:34:16.097Z,54.03
2022-11-28T20:36:43.901Z,49.15
2022-11-28T20:39:11.818Z,53.25
2022-11-28T20:41:38.984Z,55.70
2022-11-28T20:44:05.913Z,47.72
2022-11-28T20:46:34.227Z,53.33
2022-11-28T20:49:03.390Z,57.80
2022-11-28T20:51:32.340Z,53.25
2022-11-28T20:53:59.741Z,53.80
2022-11-28T20:56:29.909Z,54.13
2022-11-28T20:58:58.539Z,54.58
2022-11-28T21:01:26.913Z,53.10
2022-11-28T21:03:53.612Z,53.97
2022-11-28T21:06:20.609Z,50.03
2022-11-28T21:08:47.284Z,52.95
2022-11-28T21:11:30.891Z,55.28
2022-11-28T21:14:04.774Z,47.53
2022-11-28T21:16:32.550Z,52.55
2022-11-28T21:19:06.248Z,50.00
2022-11-28T21:21:33.850Z,48.95
2022-11-28T21:24:03.174Z,52.20
2022-11-28T21:26:33.034Z,54.88
2022-11-28T21:29:05.931Z,50.30
2022-11-28T21:31:35.513Z,49.28
2022-11-28T21:34:02.666Z,53.10
2022-11-28T21:36:30.256Z,52.20
2022-11-28T21:38:58.948Z,47.50
2022-11-28T21:41:32.855Z,46.05
2022-11-28T21:44:00.390Z,48.40
2022-11-28T21:46:27.985Z,45.95
2022-11-28T21:48:55.397Z,50.05
2022-11-28T21:51:24.198Z,50.47
2022-11-28T21:53:51.263Z,48.88
2022-11-28T21:56:18.402Z,45.33
2022-11-28T21:58:45.223Z,46.63
2022-11-28T22:01:14.285Z,46.60
2022-11-28T22:03:43.915Z,47.67
2022-11-28T22:06:15.946Z,46.67
2022-11-28T22:08:43.335Z,46.20
2022-11-28T22:11:13.521Z,48.33
2022-11-28T22:13:42.374Z,51.85
2022-11-28T22:16:27.983Z,45.90
2022-11-28T22:18:57.801Z,47.33
2022-11-28T22:21:55.762Z,49.47
2022-11-28T22:24:20.215Z,48.75
2022-11-28T22:26:49.733Z,46.70
2022-11-28T22:29:17.662Z,49.78
2022-11-28T22:31:44.409Z,46.63
2022-11-28T22:34:12.377Z,46.95
2022-11-28T22:36:39.358Z,48.50
2022-11-28T22:39:06.391Z,47.13
2022-11-28T22:41:33.404Z,47.90
2022-11-28T22:44:01.521Z,45.88
2022-11-28T22:46:30.613Z,44.60
2022-11-28T22:49:02.415Z,47.80
2022-11-28T22:51:31.095Z,47.70
2022-11-28T22:54:00.072Z,47.78
2022-11-28T22:56:29.278Z,47.42
2022-11-28T22:58:57.528Z,43.78
2022-11-28T23:01:26.937Z,49.83
2022-11-28T23:03:54.206Z,46.67
2022-11-28T23:06:28.283Z,48.47
2022-11-28T23:08:56.024Z,48.10
2022-11-28T23:11:27.290Z,45.78
2022-11-28T23:13:54.463Z,43.58
2022-11-28T23:16:24.054Z,41.25
2022-11-28T23:18:53.011Z,46.25
2022-11-28T23:21:21.179Z,42.88
2022-11-28T23:23:48.346Z,43.42
2022-11-28T23:26:20.987Z,42.97
2022-11-28T23:28:49.359Z,43.40
2022-11-28T23:31:18.633Z,45.72
2022-11-28T23:33:46.596Z,45.28
2022-11-28T23:36:24.202Z,45.08
2022-11-28T23:38:53.143Z,42.95
2022-11-28T23:41:20.007Z,44.00
2022-11-28T23:43:47.093Z,45.03
2022-11-28T23:46:15.069Z,42.38
2022-11-28T23:48:43.756Z,40.60
2022-11-28T23:51:12.932Z,45.70
2022-11-28T23:53:40.816Z,47.53
2022-11-28T23:56:10.377Z,43.95
2022-11-28T23:58:37.638Z,44.17
